createdAt,value
2023-07-19T00:04:26.959Z,85.33
2023-07-19T00:09:29.600Z,85.64
2023-07-19T00:14:33.520Z,86.01
2023-07-19T00:19:36.053Z,86.22
2023-07-19T00:24:38.582Z,86.86
2023-07-19T00:29:42.404Z,87.70
2023-07-19T00:34:45.052Z,88.12
2023-07-19T00:39:47.585Z,88.40
2023-07-19T00:44:51.507Z,89.05
2023-07-19T00:49:54.044Z,89.18
2023-07-19T00:54:56.803Z,89.33
2023-07-19T01:00:00.983Z,89.45
2023-07-19T01:05:03.688Z,89.43
2023-07-19T01:10:08.071Z,89.55
2023-07-19T01:15:12.140Z,89.79
2023-07-19T01:20:14.665Z,89.84
2023-07-19T01:25:18.591Z,89.68
2023-07-19T01:30:21.351Z,89.82
2023-07-19T01:35:24.172Z,90.20
2023-07-19T01:40:28.021Z,90.09
2023-07-19T01:45:30.618Z,90.03
2023-07-19T01:50:33.174Z,90.17
2023-07-19T01:55:37.044Z,90.24
2023-07-19T02:00:39.783Z,90.42
2023-07-19T02:05:42.696Z,90.37
2023-07-19T02:10:46.540Z,90.48
2023-07-19T02:15:49.221Z,90.52
2023-07-19T02:20:54.983Z,90.61
2023-07-19T02:25:59.133Z,90.92
2023-07-19T02:31:01.712Z,90.87
2023-07-19T02:36:04.622Z,90.93
2023-07-19T02:41:08.889Z,91.14
2023-07-19T02:46:11.587Z,91.13
2023-07-19T02:51:14.180Z,90.94
2023-07-19T02:56:18.107Z,90.98
2023-07-19T03:01:21.203Z,91.13
2023-07-19T03:06:24.015Z,91.27
2023-07-19T03:11:28.260Z,91.45
2023-07-19T03:16:30.831Z,91.57
2023-07-19T03:21:33.403Z,91.51
2023-07-19T03:26:37.294Z,91.91
2023-07-19T03:31:39.984Z,92.09
2023-07-19T03:36:42.558Z,92.42
2023-07-19T03:41:46.660Z,92.85
2023-07-19T03:46:49.456Z,93.05
2023-07-19T03:51:52.118Z,93.31
2023-07-19T03:56:56.126Z,93.39
2023-07-19T04:01:58.709Z,93.35
2023-07-19T04:07:01.262Z,93.45
2023-07-19T04:12:05.896Z,93.84
2023-07-19T04:17:08.852Z,94.03
2023-07-19T04:22:11.413Z,94.28
2023-07-19T04:27:15.265Z,94.58
2023-07-19T04:32:18.689Z,94.67
2023-07-19T04:37:21.401Z,94.94
2023-07-19T04:42:25.901Z,95.14
2023-07-19T04:47:28.843Z,95.41
2023-07-19T04:52:31.389Z,95.71
2023-07-19T04:57:35.239Z,96.16
2023-07-19T05:02:37.805Z,96.25
2023-07-19T05:07:41.632Z,96.80
2023-07-19T05:12:45.663Z,97.13
2023-07-19T05:17:48.215Z,97.15
2023-07-19T05:22:50.971Z,97.42
2023-07-19T05:27:54.834Z,97.95
2023-07-19T05:32:57.378Z,98.66
2023-07-19T05:38:00.673Z,98.92
2023-07-19T05:43:04.785Z,99.04
2023-07-19T05:48:07.423Z,98.61
2023-07-19T05:53:10.024Z,98.74
2023-07-19T05:58:13.873Z,99.06
2023-07-19T06:03:17.458Z,98.76
2023-07-19T06:08:25.010Z,99.10
2023-07-19T06:13:29.294Z,99.91
2023-07-19T06:18:31.920Z,100.00
2023-07-19T06:23:34.669Z,100.00
2023-07-19T06:28:38.795Z,100.00
2023-07-19T06:33:41.400Z,100.00
2023-07-19T06:38:43.933Z,100.00
2023-07-19T06:43:47.803Z,100.00
2023-07-19T06:48:50.434Z,99.28
2023-07-19T06:54:04.653Z,98.35
2023-07-19T06:59:16.766Z,97.77
2023-07-19T07:04:19.285Z,96.96
2023-07-19T07:09:21.809Z,97.17
2023-07-19T07:14:26.215Z,97.10
2023-07-19T07:19:28.762Z,97.05
2023-07-19T07:24:31.389Z,97.52
2023-07-19T07:29:35.278Z,97.75
2023-07-19T07:34:37.864Z,97.94
2023-07-19T07:39:40.396Z,98.09
2023-07-19T07:44:45.965Z,97.79
2023-07-19T07:49:49.858Z,98.20
2023-07-19T07:54:52.850Z,98.47
2023-07-19T07:59:56.720Z,98.61
2023-07-19T08:04:59.243Z,98.72
2023-07-19T08:10:01.769Z,99.31
2023-07-19T08:15:07.018Z,99.85
2023-07-19T08:20:11.271Z,100.00
2023-07-19T08:25:26.424Z,100.00
2023-07-19T08:30:33.504Z,100.00
2023-07-19T08:35:36.571Z,100.00
2023-07-19T08:40:40.627Z,100.00
2023-07-19T08:45:44.532Z,100.00
2023-07-19T08:50:50.800Z,100.00
2023-07-19T08:55:54.544Z,100.00
2023-07-19T09:00:58.434Z,100.00
2023-07-19T09:06:01.096Z,99.85
2023-07-19T09:11:03.661Z,99.95
2023-07-19T09:16:08.345Z,100.00
2023-07-19T09:21:10.931Z,100.00
2023-07-19T09:26:13.552Z,100.00
2023-07-19T09:36:30.898Z,100.00
2023-07-19T09:41:34.264Z,99.71
2023-07-19T09:46:38.837Z,99.71
2023-07-19T09:51:43.204Z,99.68
2023-07-19T09:56:46.266Z,99.64
2023-07-19T10:01:50.956Z,99.00
2023-07-19T10:07:04.775Z,98.90
2023-07-19T10:12:09.907Z,98.55
2023-07-19T10:17:13.814Z,98.61
2023-07-19T10:22:16.404Z,98.62
2023-07-19T10:27:37.092Z,99.12
2023-07-19T10:32:41.157Z,99.43
2023-07-19T10:37:53.637Z,99.67
2023-07-19T10:42:56.501Z,99.57
2023-07-19T10:48:01.957Z,99.71
2023-07-19T10:53:04.559Z,99.53
2023-07-19T10:58:07.937Z,99.55
2023-07-19T11:03:14.713Z,99.91
2023-07-19T11:08:27.312Z,99.90
2023-07-19T11:13:29.836Z,99.58
2023-07-19T11:18:39.316Z,99.20
2023-07-19T11:23:45.448Z,98.67
2023-07-19T11:28:50.215Z,98.31
2023-07-19T11:33:59.236Z,97.63
2023-07-19T11:39:02.352Z,97.41
2023-07-19T11:44:04.962Z,97.51
2023-07-19T11:49:11.284Z,97.46
2023-07-19T11:54:14.738Z,97.63
2023-07-19T11:59:17.431Z,97.74
2023-07-19T12:04:21.445Z,97.86
2023-07-19T12:09:24.016Z,98.00
2023-07-19T12:14:28.926Z,98.04
2023-07-19T12:19:33.092Z,97.97
2023-07-19T12:24:35.637Z,97.79
2023-07-19T12:29:48.657Z,96.86
2023-07-19T12:35:01.821Z,97.24
2023-07-19T12:40:06.384Z,97.53
2023-07-19T12:45:11.325Z,97.81
2023-07-19T12:50:15.166Z,97.55
2023-07-19T12:55:17.769Z,97.35
2023-07-19T13:00:20.702Z,97.30
2023-07-19T13:05:24.590Z,97.49
2023-07-19T13:10:27.328Z,97.29
2023-07-19T13:15:29.876Z,97.38
2023-07-19T13:20:34.077Z,97.36
2023-07-19T13:25:36.629Z,97.46
2023-07-19T13:30:40.084Z,97.19
2023-07-19T13:40:49.649Z,96.29
2023-07-19T13:45:52.241Z,95.88
2023-07-19T13:50:56.778Z,93.89
2023-07-19T13:55:59.376Z,93.46
2023-07-19T14:01:02.053Z,92.75
2023-07-19T14:06:06.019Z,92.26
2023-07-19T14:11:08.542Z,92.08
2023-07-19T14:16:11.132Z,91.19
2023-07-19T14:21:15.532Z,91.14
2023-07-19T14:26:18.496Z,91.20
2023-07-19T14:31:22.674Z,90.16
2023-07-19T14:36:27.317Z,89.51
2023-07-19T14:41:30.555Z,88.16
2023-07-19T14:46:34.318Z,88.18
2023-07-19T14:51:38.285Z,87.32
2023-07-19T14:56:40.905Z,86.64
2023-07-19T15:01:43.674Z,85.86
2023-07-19T15:06:47.750Z,84.75
2023-07-19T15:11:50.429Z,83.52
2023-07-19T15:16:53.139Z,82.52
2023-07-19T15:21:57.326Z,80.99
2023-07-19T15:27:03.081Z,80.51
2023-07-19T15:32:06.066Z,81.16
2023-07-19T15:37:09.997Z,81.16
2023-07-19T15:42:12.561Z,81.05
2023-07-19T15:47:15.108Z,80.71
2023-07-19T15:52:19.095Z,80.88
2023-07-19T15:57:21.693Z,81.32
2023-07-19T16:02:24.363Z,81.75
2023-07-19T16:07:29.325Z,81.72
2023-07-19T16:12:31.889Z,81.88
2023-07-19T16:17:34.814Z,82.67
2023-07-19T16:22:38.788Z,82.22
2023-07-19T16:27:41.377Z,82.43
2023-07-19T16:37:47.888Z,81.17
2023-07-19T16:42:50.506Z,81.04
2023-07-19T16:47:58.049Z,82.07
2023-07-19T16:53:13.335Z,81.87
2023-07-19T16:58:16.459Z,81.36
2023-07-19T17:03:19.404Z,81.45
2023-07-19T17:08:23.280Z,81.61
2023-07-19T17:13:26.282Z,80.98
2023-07-19T17:18:29.051Z,81.28
2023-07-19T17:23:33.369Z,81.13
2023-07-19T17:28:35.898Z,81.58
2023-07-19T17:33:38.613Z,82.26
2023-07-19T17:38:43.212Z,83.45
2023-07-19T17:43:45.767Z,83.38
2023-07-19T17:48:52.386Z,84.31
2023-07-19T17:53:56.282Z,85.14
2023-07-19T17:58:58.855Z,85.55
2023-07-19T18:04:01.473Z,85.37
2023-07-19T18:09:05.385Z,85.29
2023-07-19T18:14:08.350Z,85.15
2023-07-19T18:19:10.916Z,84.41
2023-07-19T18:24:14.815Z,84.53
2023-07-19T18:29:19.889Z,84.54
2023-07-19T18:34:22.703Z,84.55
2023-07-19T18:39:26.586Z,85.03
2023-07-19T18:44:29.157Z,84.79
2023-07-19T18:49:31.689Z,85.33
2023-07-19T18:54:35.554Z,85.35
2023-07-19T18:59:38.091Z,85.55
2023-07-19T19:04:40.748Z,85.62
2023-07-19T19:09:44.614Z,85.99
2023-07-19T19:14:47.461Z,86.14
2023-07-19T19:19:50.084Z,86.40
2023-07-19T19:24:54.052Z,86.91
2023-07-19T19:29:56.574Z,87.33
2023-07-19T19:34:59.151Z,87.81
2023-07-19T19:40:03.109Z,88.52
2023-07-19T19:45:08.744Z,88.87
2023-07-19T19:50:12.348Z,89.12
2023-07-19T19:55:16.238Z,89.61
2023-07-19T20:10:33.222Z,90.74
2023-07-19T20:15:48.152Z,91.18
2023-07-19T20:20:53.325Z,91.39
2023-07-19T20:26:12.080Z,91.61
2023-07-19T20:46:35.375Z,92.72
2023-07-19T20:51:38.174Z,93.16
2023-07-19T20:56:42.331Z,93.40
2023-07-19T21:01:44.974Z,93.46
2023-07-19T21:06:47.544Z,93.40
2023-07-19T21:11:51.528Z,93.35
2023-07-19T21:16:54.119Z,93.54
2023-07-19T21:21:56.767Z,93.68
2023-07-19T21:27:00.763Z,93.81
2023-07-19T21:32:04.323Z,94.02
2023-07-19T21:37:07.174Z,94.33
2023-07-19T21:42:11.191Z,94.30
2023-07-19T21:47:13.706Z,94.48
2023-07-19T21:52:16.504Z,94.76
2023-07-19T21:57:20.357Z,94.57
2023-07-19T22:02:22.888Z,94.64
2023-07-19T22:07:25.425Z,94.72
2023-07-19T22:12:29.292Z,94.72
2023-07-19T22:17:32.048Z,94.96
2023-07-19T22:22:34.766Z,95.38
2023-07-19T22:27:38.723Z,95.41
2023-07-19T22:32:41.294Z,95.68
2023-07-19T22:37:44.029Z,95.67
2023-07-19T22:42:48.225Z,95.72
2023-07-19T22:47:50.970Z,95.70
2023-07-19T22:52:55.314Z,96.02
2023-07-19T22:57:59.413Z,96.09
2023-07-19T23:03:02.061Z,96.47
2023-07-19T23:08:04.973Z,96.79
2023-07-19T23:13:08.883Z,96.91
2023-07-19T23:18:11.442Z,96.56
2023-07-19T23:23:14.488Z,96.82
2023-07-19T23:28:18.742Z,96.77
2023-07-19T23:33:21.425Z,96.76
2023-07-19T23:38:24.078Z,97.00
2023-07-19T23:43:27.967Z,97.17
2023-07-19T23:48:30.512Z,97.16
2023-07-19T23:53:33.199Z,97.44
2023-07-19T23:58:37.181Z,97.72
